Time;durP1;ratioP1;P1;durP2;ratioP2;P2;SDS_P1;SDS_P2;PMS_P1;PMS_P2;Temp;Humidity;BMP_temperature;BMP_pressure;BME280_temperature;BME280_humidity;BME280_pressure;Samples;Min_cycle;Max_cycle;Signal;HPM_P1;HPM_P2
2022/01/06 00:04:44;;;;;;;5.97;1.33;;;;;;;2.63;100.00;99093.00;5020860;57;1134788;-70
2022/01/06 00:09:50;;;;;;;2.13;1.20;;;;;;;2.60;100.00;99098.92;5030847;57;1134845;-69
2022/01/06 00:15:08;;;;;;;1.47;1.37;;;;;;;2.59;100.00;99103.77;5011453;57;1134920;-72
2022/01/06 00:25:28;;;;;;;2.97;1.70;;;;;;;2.55;100.00;99101.83;4999611;58;1134789;-71
2022/01/06 00:30:34;;;;;;;1.63;1.43;;;;;;;2.57;100.00;99117.39;5000179;58;1135130;-71
2022/01/06 00:35:41;;;;;;;4.03;1.13;;;;;;;2.58;100.00;99121.20;5000055;58;1135078;-69
2022/01/06 00:40:46;;;;;;;3.43;1.10;;;;;;;2.57;100.00;99126.52;5000079;58;1134847;-70
2022/01/06 00:45:52;;;;;;;2.83;1.53;;;;;;;2.57;100.00;99141.71;5000217;58;1135035;-72
2022/01/06 00:50:57;;;;;;;1.30;1.13;;;;;;;2.57;100.00;99156.06;4999973;58;1135115;-70
2022/01/06 00:56:03;;;;;;;3.80;0.80;;;;;;;2.56;100.00;99159.61;4999915;58;1135084;-72
2022/01/06 01:01:09;;;;;;;4.73;1.00;;;;;;;2.56;100.00;99154.86;5000061;58;1134748;-70
2022/01/06 01:06:15;;;;;;;1.13;1.03;;;;;;;2.59;100.00;99170.33;4999537;58;1134945;-72
2022/01/06 01:11:20;;;;;;;0.77;0.77;;;;;;;2.58;100.00;99181.23;5070437;57;1134752;-67
2022/01/06 01:16:32;;;;;;;2.30;1.83;;;;;;;2.58;100.00;99199.50;5112656;57;1134876;-71
2022/01/06 01:21:36;;;;;;;0.70;0.70;;;;;;;2.56;100.00;99188.79;5145019;57;1135187;-71
2022/01/06 01:26:42;;;;;;;0.60;0.60;;;;;;;2.57;100.00;99202.20;5145038;57;1135036;-70
2022/01/06 01:31:53;;;;;;;2.30;1.03;;;;;;;2.57;100.00;99213.48;5144994;57;1134861;-69
2022/01/06 01:36:58;;;;;;;1.00;1.00;;;;;;;2.57;100.00;99223.09;5144752;57;1135095;-70
2022/01/06 01:42:04;;;;;;;1.40;0.90;;;;;;;2.56;100.00;99218.33;5145057;57;1135086;-70
2022/01/06 01:47:14;;;;;;;1.10;1.00;;;;;;;2.55;100.00;99231.48;5145150;57;1134811;-70
2022/01/06 01:52:17;;;;;;;2.10;0.80;;;;;;;2.54;100.00;99232.41;5145076;57;1134854;-68
2022/01/06 01:57:23;;;;;;;1.80;1.17;;;;;;;2.53;100.00;99244.63;5132547;57;1134769;-68
2022/01/06 02:02:29;;;;;;;0.90;0.90;;;;;;;2.52;100.00;99253.39;5102561;58;1134829;-71
2022/01/06 02:07:36;;;;;;;2.08;0.90;;;;;;;2.51;100.00;99269.14;5102203;58;1134900;-70
2022/01/06 02:12:44;;;;;;;5.30;0.90;;;;;;;2.51;100.00;99275.66;5013677;58;1134981;-70
2022/01/06 02:17:50;;;;;;;1.65;1.00;;;;;;;2.50;100.00;99273.98;5001595;58;1135052;-71
2022/01/06 02:22:57;;;;;;;4.43;0.77;;;;;;;2.46;100.00;99296.83;5002536;58;1135084;-71
2022/01/06 02:28:05;;;;;;;0.67;0.67;;;;;;;2.43;100.00;99291.36;5003552;58;1132763;-68
2022/01/06 02:33:12;;;;;;;1.13;0.70;;;;;;;2.37;100.00;99312.61;5011347;58;1132728;-70
2022/01/06 02:38:19;;;;;;;3.60;0.97;;;;;;;2.25;100.00;99319.08;5011995;58;1132759;-71
2022/01/06 02:43:25;;;;;;;1.37;0.88;;;;;;;2.10;100.00;99306.53;5011960;58;1132970;-71
2022/01/06 02:48:31;;;;;;;6.47;0.90;;;;;;;2.03;100.00;99320.39;5011912;58;1132721;-71
2022/01/06 02:53:36;;;;;;;2.70;0.63;;;;;;;1.96;100.00;99328.70;5012044;58;1132766;-68
2022/01/06 02:58:42;;;;;;;3.73;1.00;;;;;;;1.92;100.00;99337.64;5013546;58;1132757;-69
2022/01/06 03:03:47;;;;;;;1.60;0.90;;;;;;;1.88;100.00;99334.38;4991804;59;1132786;-69
2022/01/06 03:08:53;;;;;;;3.93;1.07;;;;;;;1.87;100.00;99343.13;4983330;59;1132812;-71
2022/01/06 03:13:59;;;;;;;2.80;1.20;;;;;;;1.86;100.00;99353.64;4919774;59;1132708;-69
2022/01/06 03:19:07;;;;;;;1.23;0.50;;;;;;;1.80;100.00;99366.60;4921383;59;1132785;-72
2022/01/06 03:24:15;;;;;;;7.70;2.67;;;;;;;1.76;100.00;99376.83;4921496;59;1132689;-69
2022/01/06 03:29:21;;;;;;;1.60;0.77;;;;;;;1.73;100.00;99383.06;4921432;59;1132963;-69
2022/01/06 03:34:34;;;;;;;2.90;1.10;;;;;;;1.69;100.00;99389.38;4921486;58;1132851;-68
2022/01/06 03:39:35;;;;;;;6.53;1.60;;;;;;;1.63;100.00;99385.84;4920437;59;1132775;-67
2022/01/06 03:44:41;;;;;;;1.62;0.80;;;;;;;1.61;100.00;99399.89;4921372;59;1132750;-70
2022/01/06 03:49:47;;;;;;;4.23;1.23;;;;;;;1.55;100.00;99409.36;4921455;59;1130975;-69
2022/01/06 03:54:52;;;;;;;2.13;0.80;;;;;;;1.52;100.00;99413.47;4921426;59;1130649;-69
2022/01/06 03:59:58;;;;;;;2.30;0.80;;;;;;;1.46;100.00;99419.86;4982306;58;21115;-70
2022/01/06 04:05:05;;;;;;;2.93;1.20;;;;;;;1.41;100.00;99431.00;4967887;58;1135827;-68
2022/01/06 04:10:12;;;;;;;2.47;0.90;;;;;;;1.34;100.00;99450.53;4964951;59;1134763;-70
2022/01/06 04:15:17;;;;;;;4.87;1.93;;;;;;;1.28;100.00;99445.19;4971515;59;1135013;-68
2022/01/06 04:20:23;;;;;;;2.40;0.77;;;;;;;1.29;100.00;99453.84;4965511;59;1134827;-72
2022/01/06 04:25:29;;;;;;;3.87;0.70;;;;;;;1.22;100.00;99457.25;4958976;59;1134809;-72
2022/01/06 04:30:35;;;;;;;3.13;0.87;;;;;;;1.19;100.00;99461.81;4958671;59;1134784;-70
2022/01/06 04:35:41;;;;;;;2.60;0.70;;;;;;;1.20;100.00;99459.59;4960505;59;1134833;-72
2022/01/06 04:40:47;;;;;;;10.07;3.27;;;;;;;1.20;100.00;99463.49;4956864;59;1134851;-68
2022/01/06 04:45:53;;;;;;;5.37;2.77;;;;;;;1.17;100.00;99460.59;4990513;59;1136854;-70
2022/01/06 04:50:59;;;;;;;6.60;2.30;;;;;;;1.15;100.00;99472.02;4990725;59;1134995;-72
2022/01/06 04:56:05;;;;;;;1.40;1.00;;;;;;;1.14;100.00;99481.59;4990614;59;1135099;-69
2022/01/06 05:01:12;;;;;;;4.30;1.30;;;;;;;1.14;100.00;99484.19;4990504;58;1134874;-71
2022/01/06 05:06:18;;;;;;;8.43;1.60;;;;;;;1.11;100.00;99488.27;4990589;59;1134710;-71
2022/01/06 05:11:24;;;;;;;5.47;1.33;;;;;;;1.11;100.00;99490.87;4988000;59;1134843;-69
2022/01/06 05:16:30;;;;;;;3.93;1.50;;;;;;;1.10;100.00;99498.76;4986292;59;1135089;-70
2022/01/06 05:21:36;;;;;;;5.70;1.30;;;;;;;1.07;100.00;99503.67;4986530;59;1134873;-68
2022/01/06 05:26:42;;;;;;;2.97;1.20;;;;;;;1.08;100.00;99511.86;4986429;59;1134808;-71
2022/01/06 05:31:49;;;;;;;5.77;1.50;;;;;;;1.05;100.00;99512.89;4986434;59;1134844;-72
2022/01/06 05:36:54;;;;;;;3.27;1.20;;;;;;;1.08;100.00;99522.73;4987061;59;1134911;-69
2022/01/06 05:42:00;;;;;;;2.00;0.70;;;;;;;1.04;100.00;99524.69;4987025;59;1134830;-68
2022/01/06 05:47:06;;;;;;;5.07;1.50;;;;;;;1.04;100.00;99541.16;4986982;59;1134204;-69
2022/01/06 05:52:11;;;;;;;3.60;0.90;;;;;;;1.02;100.00;99543.45;4986996;59;1134823;-68
2022/01/06 05:57:19;;;;;;;2.60;0.87;;;;;;;1.00;100.00;99553.95;4986948;59;1134793;-67
2022/01/06 06:02:25;;;;;;;5.23;1.20;;;;;;;0.99;100.00;99570.95;4986194;59;1134953;-71
2022/01/06 06:07:30;;;;;;;1.07;0.67;;;;;;;0.95;100.00;99574.63;4973316;59;1135085;-71
2022/01/06 06:12:36;;;;;;;1.10;0.75;;;;;;;0.93;100.00;99576.47;4961911;59;1134926;-71
2022/01/06 06:17:42;;;;;;;2.33;1.93;;;;;;;0.92;100.00;99593.85;4954469;59;1135101;-68
2022/01/06 06:22:47;;;;;;;3.33;1.50;;;;;;;0.89;100.00;99602.31;4971172;59;1134810;-70
2022/01/06 06:27:54;;;;;;;4.27;1.27;;;;;;;0.82;100.00;99602.23;4963862;59;1135104;-69
2022/01/06 06:33:05;;;;;;;4.77;1.90;;;;;;;0.78;100.00;99621.06;4948774;59;1134923;-69
2022/01/06 06:38:07;;;;;;;6.93;2.93;;;;;;;0.75;100.00;99626.45;4908925;59;1134840;-70
2022/01/06 06:43:14;;;;;;;2.17;1.20;;;;;;;0.73;100.00;99635.26;4919178;59;1134920;-71
2022/01/06 06:48:22;;;;;;;1.50;1.40;;;;;;;0.66;100.00;99647.27;4954615;59;1134816;-70
2022/01/06 06:53:27;;;;;;;3.35;1.70;;;;;;;0.62;100.00;99664.41;4944600;58;1134772;-72
2022/01/06 06:58:33;;;;;;;2.13;1.87;;;;;;;0.60;100.00;99684.02;4956283;59;1134840;-68
2022/01/06 07:03:38;;;;;;;0.63;0.63;;;;;;;0.51;100.00;99698.77;4977721;58;1134856;-72
2022/01/06 07:08:44;;;;;;;2.10;1.90;;;;;;;0.38;100.00;99715.06;4920892;59;1134728;-72
2022/01/06 07:13:49;;;;;;;1.70;0.47;;;;;;;0.26;100.00;99733.41;4912295;60;1134943;-69
2022/01/06 07:18:55;;;;;;;0.40;0.40;;;;;;;0.19;100.00;99751.05;4986758;59;1134955;-71
2022/01/06 07:24:00;;;;;;;7.13;1.57;;;;;;;0.14;98.67;99766.50;4990968;59;1132840;-71
2022/01/06 07:29:06;;;;;;;1.20;0.80;;;;;;;0.12;98.95;99783.92;4990895;59;1130741;-69
2022/01/06 07:34:12;;;;;;;1.90;0.53;;;;;;;0.10;97.58;99798.29;4990880;59;1130650;-69
2022/01/06 07:39:18;;;;;;;0.80;0.77;;;;;;;0.06;94.79;99801.09;4990957;59;1130760;-68
2022/01/06 07:44:24;;;;;;;0.40;0.40;;;;;;;0.03;97.01;99811.63;4990888;59;1130708;-71
2022/01/06 07:49:29;;;;;;;3.02;0.68;;;;;;;0.03;95.76;99825.92;4990708;59;1130676;-71
2022/01/06 07:54:35;;;;;;;3.40;1.13;;;;;;;-0.01;96.60;99838.23;4990805;59;1130749;-68
2022/01/06 07:59:41;;;;;;;9.07;4.13;;;;;;;-0.04;95.71;99849.61;4929153;59;1133036;-69
2022/01/06 08:04:47;;;;;;;3.00;1.37;;;;;;;0.00;96.57;99858.13;4815612;60;1132755;-69
2022/01/06 08:09:53;;;;;;;3.00;2.02;;;;;;;0.00;93.31;99863.32;4785307;60;1130706;-67
2022/01/06 08:14:58;;;;;;;1.63;1.47;;;;;;;0.02;94.18;99869.27;4968338;59;1130727;-71
2022/01/06 08:20:09;;;;;;;1.80;1.03;;;;;;;0.00;93.71;99878.92;4949578;59;1130969;-71
2022/01/06 08:25:15;;;;;;;6.10;2.33;;;;;;;-0.12;88.25;99895.88;4916750;59;1130911;-70
2022/01/06 08:30:20;;;;;;;5.77;2.53;;;;;;;-0.14;89.36;99906.79;4962130;59;1132763;-70
2022/01/06 08:35:26;;;;;;;4.37;2.33;;;;;;;-0.17;88.49;99917.80;4967137;59;1132751;-72
2022/01/06 08:40:33;;;;;;;5.80;2.30;;;;;;;-0.15;90.40;99923.74;4940069;59;1132860;-74
2022/01/06 08:45:39;;;;;;;2.72;1.85;;;;;;;-0.13;89.16;99935.77;4945921;59;1132755;-68
2022/01/06 08:50:45;;;;;;;8.30;2.97;;;;;;;-0.08;85.79;99938.17;4921762;59;1132949;-73
2022/01/06 08:55:51;;;;;;;5.53;2.73;;;;;;;-0.06;86.74;99945.45;4911083;60;1130686;-72
2022/01/06 09:00:57;;;;;;;5.50;2.80;;;;;;;-0.07;87.40;99958.06;4910980;60;1130978;-71
2022/01/06 09:06:04;;;;;;;26.03;6.37;;;;;;;-0.04;90.00;99969.18;4911071;58;1135038;-71
2022/01/06 09:11:10;;;;;;;7.27;2.37;;;;;;;-0.03;90.17;99981.72;4890363;59;1136924;-70
2022/01/06 09:16:15;;;;;;;7.40;2.93;;;;;;;-0.07;90.52;99987.95;4912921;58;1135001;-69
2022/01/06 09:21:22;;;;;;;23.47;8.97;;;;;;;-0.17;91.42;99987.51;4952766;58;1134774;-70
2022/01/06 09:26:29;;;;;;;16.07;6.43;;;;;;;-0.19;92.59;99995.82;4931209;59;1136925;-72
2022/01/06 09:31:36;;;;;;;55.57;27.27;;;;;;;-0.19;93.82;100007.52;4927320;58;1136998;-73
2022/01/06 09:36:43;;;;;;;11.93;5.57;;;;;;;-0.25;94.70;100004.31;4929557;59;1141071;-71
2022/01/06 09:41:49;;;;;;;1.63;1.30;;;;;;;-0.25;95.39;100018.15;4916623;59;1139286;-71
2022/01/06 09:46:55;;;;;;;1.20;0.60;;;;;;;-0.25;93.14;100030.30;4917854;59;1136906;-69
2022/01/06 09:52:01;;;;;;;1.90;1.33;;;;;;;-0.33;91.26;100038.88;4928233;59;1136936;-69
2022/01/06 09:57:08;;;;;;;6.37;2.10;;;;;;;-0.42;91.32;100050.02;4931482;58;1136923;-70
2022/01/06 10:02:17;;;;;;;3.25;1.92;;;;;;;-0.38;93.60;100058.08;4927864;59;1137102;-67
2022/01/06 10:07:23;;;;;;;5.03;2.83;;;;;;;-0.33;92.63;100058.36;5030214;58;1137114;-71
2022/01/06 10:12:28;;;;;;;6.83;1.97;;;;;;;-0.24;93.80;100065.77;5045923;58;1136908;-68
2022/01/06 10:17:35;;;;;;;2.00;1.90;;;;;;;-0.18;92.32;100071.58;4928422;59;1136909;-72
2022/01/06 10:22:54;;;;;;;1.20;1.10;;;;;;;-0.15;93.06;100087.02;5060187;58;1136950;-72
2022/01/06 10:27:59;;;;;;;4.47;1.00;;;;;;;-0.17;92.14;100096.66;5048249;58;1136958;-68
2022/01/06 10:33:05;;;;;;;2.63;2.10;;;;;;;-0.18;92.91;100107.11;5033317;58;1136920;-68
2022/01/06 10:38:11;;;;;;;6.23;1.73;;;;;;;-0.20;94.53;100113.67;5067591;58;1137148;-70
2022/01/06 10:43:18;;;;;;;6.00;1.40;;;;;;;-0.28;93.32;100122.66;4951234;58;1137086;-71
2022/01/06 10:48:24;;;;;;;7.00;2.40;;;;;;;-0.26;94.91;100119.55;5037956;58;1137142;-69
2022/01/06 10:53:32;;;;;;;8.30;2.53;;;;;;;-0.24;94.03;100138.08;5016212;58;1136916;-68
2022/01/06 10:58:38;;;;;;;11.48;3.58;;;;;;;-0.21;94.72;100142.31;4916311;59;1136951;-68
2022/01/06 11:03:44;;;;;;;9.97;2.90;;;;;;;-0.21;94.67;100143.61;5023059;58;1138999;-68
2022/01/06 11:08:51;;;;;;;25.27;6.77;;;;;;;-0.27;95.09;100143.39;5080933;58;1136962;-70
2022/01/06 11:13:57;;;;;;;17.90;4.33;;;;;;;-0.31;96.44;100159.18;5048665;58;1139084;-67
2022/01/06 11:19:04;;;;;;;8.10;2.13;;;;;;;-0.27;97.85;100168.08;5043065;58;1138969;-70
2022/01/06 11:24:23;;;;;;;15.77;8.87;;;;;;;-0.29;98.30;100171.18;5049751;58;1136984;-71
2022/01/06 11:29:42;;;;;;;4.70;3.60;;;;;;;-0.29;98.63;100182.02;5059676;58;1139010;-71
2022/01/06 11:34:53;;;;;;;8.00;3.43;;;;;;;-0.26;98.93;100187.95;4932466;59;1137181;-68
2022/01/06 11:40:06;;;;;;;11.97;5.40;;;;;;;-0.24;97.94;100174.45;5048707;58;1135042;-70
2022/01/06 11:45:16;;;;;;;23.80;3.08;;;;;;;-0.20;97.50;100191.62;4943666;59;1137067;-67
2022/01/06 11:50:27;;;;;;;7.70;2.40;;;;;;;-0.15;97.62;100200.53;5077401;57;1137008;-70
2022/01/06 11:55:45;;;;;;;14.07;4.67;;;;;;;-0.09;97.92;100212.00;5078552;58;1134868;-68
2022/01/06 12:01:09;;;;;;;8.27;3.60;;;;;;;-0.01;96.92;100215.16;5030281;58;1136872;-68
2022/01/06 12:06:26;;;;;;;;;;;;;;;0.14;95.69;100222.81;5041673;58;1135099;-69
2022/01/06 12:11:36;;;;;;;10.73;2.57;;;;;;;0.22;94.70;100227.23;5009496;58;968021;-79
2022/01/06 12:16:43;;;;;;;7.80;3.97;;;;;;;0.20;94.91;100228.59;4983834;58;1135119;-78
2022/01/06 12:21:49;;;;;;;4.23;2.43;;;;;;;0.13;92.89;100232.81;4986551;58;1135109;-78
2022/01/06 12:26:55;;;;;;;5.60;2.57;;;;;;;0.10;94.40;100242.03;4985878;59;1135063;-79
2022/01/06 12:32:11;;;;;;;7.83;5.60;;;;;;;0.09;93.87;100246.38;4989459;58;1134846;-78
2022/01/06 12:37:15;;;;;;;4.30;1.10;;;;;;;0.11;93.80;100261.93;4937481;59;1134915;-79
2022/01/06 12:42:21;;;;;;;7.83;2.07;;;;;;;0.07;94.57;100276.80;4929534;59;1134864;-79
2022/01/06 12:47:27;;;;;;;2.95;1.87;;;;;;;0.01;95.48;100288.72;4954503;59;1134803;-79
2022/01/06 12:52:33;;;;;;;5.87;1.60;;;;;;;0.01;95.48;100288.72;4971264;58;1135127;-78
2022/01/06 12:57:40;;;;;;;7.03;2.93;;;;;;;0.02;95.39;100297.36;4937678;59;1135101;-79
2022/01/06 13:03:01;;;;;;;3.77;1.98;;;;;;;0.00;95.24;100295.66;4934490;59;1134823;-79
2022/01/06 13:08:06;;;;;;;7.00;2.65;;;;;;;0.00;94.16;100308.66;4946938;59;1135091;-79
2022/01/06 13:13:12;;;;;;;3.80;1.87;;;;;;;0.00;93.83;100326.86;4900930;59;1134736;-79
2022/01/06 13:18:27;;;;;;;7.50;4.33;;;;;;;0.00;94.39;100330.76;4928814;59;1134863;-78
2022/01/06 13:28:43;;;;;;;2.03;1.40;;;;;;;-0.08;95.89;100365.30;4926342;59;1139304;-79
2022/01/06 13:33:56;;;;;;;8.33;4.67;;;;;;;-0.31;99.83;100373.55;4965924;59;1137083;-79
2022/01/06 13:39:11;;;;;;;9.60;5.62;;;;;;;-0.46;100.00;100395.72;4910850;59;1136943;-79
2022/01/06 13:44:19;;;;;;;5.60;2.07;;;;;;;-0.58;100.00;100410.39;4958074;59;1139023;-78
2022/01/06 13:55:16;;;;;;;6.85;2.30;;;;;;;-0.74;100.00;100443.36;4935586;59;1139075;-78
2022/01/06 14:00:22;;;;;;;11.40;5.73;;;;;;;-0.74;100.00;100458.94;4963510;59;1136903;-78
2022/01/06 14:05:27;;;;;;;10.67;5.47;;;;;;;-0.68;100.00;100468.30;5004451;58;1138986;-79
2022/01/06 14:10:33;;;;;;;22.37;13.47;;;;;;;-0.68;100.00;100477.38;5034568;58;1139167;-79
2022/01/06 14:15:39;;;;;;;20.17;11.47;;;;;;;-0.67;100.00;100491.22;4997848;58;1141162;-79
2022/01/06 14:20:45;;;;;;;33.33;23.57;;;;;;;-0.69;100.00;100505.55;5016810;58;1141325;-78
2022/01/06 14:25:51;;;;;;;15.18;11.15;;;;;;;-0.69;100.00;100508.14;4949155;59;1141132;-79
2022/01/06 14:30:58;;;;;;;25.40;16.00;;;;;;;-0.70;100.00;100525.92;4992383;58;1141044;-80
2022/01/06 14:36:11;;;;;;;21.33;12.97;;;;;;;-0.72;100.00;100529.86;5000790;57;1141123;-79
2022/01/06 14:41:21;;;;;;;12.40;6.50;;;;;;;-0.74;100.00;100540.73;4973845;58;1141082;-79
2022/01/06 14:46:29;;;;;;;18.90;9.80;;;;;;;-0.79;100.00;100550.89;5010033;57;1139011;-79
2022/01/06 14:51:35;;;;;;;10.93;5.20;;;;;;;-0.82;100.00;100558.77;4931277;58;1139005;-79
2022/01/06 14:56:41;;;;;;;7.17;4.35;;;;;;;-0.80;100.00;100566.06;4930441;60;1139041;-79
2022/01/06 15:01:47;;;;;;;15.77;7.87;;;;;;;-0.85;100.00;100575.72;4930807;59;1137027;-79
2022/01/06 15:06:54;;;;;;;8.80;3.20;;;;;;;-0.86;100.00;100597.39;4980293;58;1139071;-80
2022/01/06 15:12:00;;;;;;;4.87;3.20;;;;;;;-0.87;100.00;100603.47;5088383;58;1137212;-80
2022/01/06 15:17:07;;;;;;;17.25;6.72;;;;;;;-0.89;100.00;100613.05;5069758;57;1134825;-80
2022/01/06 15:22:16;;;;;;;12.93;6.30;;;;;;;-0.89;100.00;100627.33;5065626;58;1136910;-79
2022/01/06 15:27:23;;;;;;;19.57;6.97;;;;;;;-0.89;100.00;100640.31;5069548;58;1141173;-79
2022/01/06 15:32:29;;;;;;;25.57;9.90;;;;;;;-0.90;100.00;100651.59;5059409;58;1141041;-81
2022/01/06 15:37:36;;;;;;;29.13;11.80;;;;;;;-0.92;100.00;100654.70;5040712;58;1141075;-81
2022/01/06 15:42:49;;;;;;;27.70;10.07;;;;;;;-0.98;100.00;100669.98;5013072;58;1143124;-80
2022/01/06 15:47:57;;;;;;;33.18;11.22;;;;;;;-0.99;100.00;100670.87;5051119;58;1142745;-79
2022/01/06 15:53:07;;;;;;;18.63;7.33;;;;;;;-1.01;100.00;100684.34;5035710;58;1143188;-80
2022/01/06 15:58:12;;;;;;;35.87;10.67;;;;;;;-1.02;99.38;100695.62;5038785;58;1141078;-80
2022/01/06 16:08:40;;;;;;;;;;;;;;;-1.10;99.56;100701.03;5057114;58;1141063;-79
2022/01/06 16:13:46;;;;;;;19.97;7.47;;;;;;;-1.13;98.75;100728.36;4978176;58;974398;-83
2022/01/06 16:18:53;;;;;;;14.70;5.43;;;;;;;-1.16;98.90;100727.58;4937206;58;1136975;-80
2022/01/06 16:23:58;;;;;;;16.10;5.53;;;;;;;-1.18;98.49;100733.25;4922299;58;1139203;-81
2022/01/06 16:29:06;;;;;;;9.93;4.30;;;;;;;-1.22;98.45;100744.15;4927283;58;1139126;-82
2022/01/06 16:34:13;;;;;;;13.47;4.57;;;;;;;-1.22;97.94;100754.53;4931338;59;1137254;-81
2022/01/06 16:39:41;;;;;;;18.00;6.43;;;;;;;-1.23;97.99;100764.53;4923355;59;1139012;-81
2022/01/06 16:44:41;;;;;;;18.13;7.43;;;;;;;-1.24;98.29;100782.29;4922044;59;1139051;-81
2022/01/06 16:49:51;;;;;;;18.27;6.77;;;;;;;-1.24;98.04;100787.92;4917133;59;1139403;-81
2022/01/06 16:54:58;;;;;;;12.37;5.33;;;;;;;-1.25;98.02;100797.45;4917580;59;1139175;-81
2022/01/06 17:00:07;;;;;;;15.25;6.75;;;;;;;-1.26;98.04;100812.61;4917260;58;1139200;-82
2022/01/06 17:05:15;;;;;;;58.07;19.10;;;;;;;-1.26;98.13;100815.64;4923047;59;1139154;-80
2022/01/06 17:10:22;;;;;;;25.10;11.67;;;;;;;-1.29;98.37;100822.20;4939241;57;1141132;-81
2022/01/06 17:15:28;;;;;;;37.37;14.57;;;;;;;-1.25;98.59;100833.77;5001349;58;1141165;-82
2022/01/06 17:20:34;;;;;;;36.33;14.30;;;;;;;-1.22;98.81;100847.95;4961406;59;1141226;-82
2022/01/06 17:25:40;;;;;;;72.87;25.47;;;;;;;-1.19;98.65;100857.41;4968395;59;1141492;-78
2022/01/06 17:30:53;;;;;;;91.33;33.00;;;;;;;-1.20;98.36;100859.59;4952938;59;1141091;-79
2022/01/06 17:35:59;;;;;;;34.67;13.40;;;;;;;-1.25;98.66;100862.77;4952906;59;1141376;-78
2022/01/06 17:41:05;;;;;;;38.33;14.30;;;;;;;-1.26;98.54;100867.09;4937880;59;1139094;-77
2022/01/06 17:46:12;;;;;;;31.00;10.53;;;;;;;-1.38;98.19;100865.23;4945824;59;1139032;-78
2022/01/06 17:51:21;;;;;;;22.93;7.00;;;;;;;-1.40;98.39;100873.49;4965507;59;1139311;-77
2022/01/06 17:56:28;;;;;;;30.23;10.83;;;;;;;-1.46;98.37;100871.44;4961633;58;1136877;-80
2022/01/06 18:01:34;;;;;;;17.63;5.33;;;;;;;-1.47;98.49;100885.73;4924545;59;1139013;-81
2022/01/06 18:06:42;;;;;;;15.03;4.73;;;;;;;-1.51;98.25;100886.23;4928883;59;1137025;-82
2022/01/06 18:11:49;;;;;;;12.90;4.63;;;;;;;-1.58;98.40;100887.28;4941589;58;1136942;-81
2022/01/06 18:17:00;;;;;;;234.70;50.70;;;;;;;-1.59;98.26;100897.24;4958312;58;1136860;-81
2022/01/06 18:22:06;;;;;;;39.33;9.47;;;;;;;-1.62;98.44;100903.78;4940129;58;1141102;-80
2022/01/06 18:27:12;;;;;;;133.03;28.13;;;;;;;-1.60;98.50;100898.13;4946260;58;1136986;-80
2022/01/06 18:32:19;;;;;;;86.57;18.97;;;;;;;-1.64;98.19;100892.59;4984009;58;1141124;-81
2022/01/06 18:37:24;;;;;;;443.43;101.93;;;;;;;-1.71;98.01;100904.00;4919224;60;1138965;-82
2022/01/06 18:42:30;;;;;;;72.27;21.33;;;;;;;-1.87;97.71;100890.50;4955105;58;1143083;-79
2022/01/06 18:47:36;;;;;;;27.50;11.38;;;;;;;-1.85;97.65;100906.03;4978307;58;1139151;-83
2022/01/06 18:52:42;;;;;;;13.13;5.73;;;;;;;-1.90;97.45;100902.66;4977549;58;1139189;-79
2022/01/06 18:57:48;;;;;;;6.00;3.47;;;;;;;-1.94;97.65;100909.64;4963546;58;1136856;-82
2022/01/06 19:02:54;;;;;;;7.83;3.63;;;;;;;-1.97;97.46;100924.39;4984303;58;1132901;-79
2022/01/06 19:08:00;;;;;;;10.78;4.03;;;;;;;-2.00;97.15;100928.37;4833952;60;1132787;-80
2022/01/06 19:13:08;;;;;;;8.90;3.90;;;;;;;-2.02;97.66;100927.53;4883937;59;1138956;-79
2022/01/06 19:18:14;;;;;;;27.27;7.20;;;;;;;-2.05;97.36;100927.59;4852579;60;1136867;-76
2022/01/06 19:23:21;;;;;;;18.07;5.00;;;;;;;-2.05;97.55;100932.77;4993729;58;1138994;-78
2022/01/06 19:28:30;;;;;;;22.13;4.83;;;;;;;-2.05;97.59;100928.89;4975964;59;1139114;-72
2022/01/06 19:33:35;;;;;;;14.00;4.97;;;;;;;-2.07;97.53;100931.50;4934136;58;1138978;-73
2022/01/06 19:38:40;;;;;;;7.80;2.80;;;;;;;-2.14;96.80;100937.70;4921459;58;1139045;-78
2022/01/06 19:43:46;;;;;;;19.20;5.17;;;;;;;-2.21;97.12;100944.72;4985032;58;1136897;-73
2022/01/06 19:48:52;;;;;;;8.90;3.07;;;;;;;-2.24;97.38;100955.14;4926311;58;1139282;-76
2022/01/06 19:53:58;;;;;;;51.63;13.87;;;;;;;-2.24;97.52;100954.28;4987939;58;1136862;-72
2022/01/06 19:59:06;;;;;;;41.13;10.97;;;;;;;-2.23;97.67;100963.77;4936998;59;1141130;-73
2022/01/06 20:04:13;;;;;;;35.93;10.13;;;;;;;-2.20;97.87;100975.38;4912663;58;1141277;-80
2022/01/06 20:09:20;;;;;;;44.40;11.97;;;;;;;-2.15;97.96;100980.89;4950263;58;1140851;-80
2022/01/06 20:14:25;;;;;;;41.97;11.57;;;;;;;-2.15;97.96;100980.89;4986301;59;1141077;-77
2022/01/06 20:19:31;;;;;;;45.13;11.07;;;;;;;-2.13;97.83;100980.41;4976543;58;1141000;-79
2022/01/06 20:24:37;;;;;;;79.60;18.10;;;;;;;-2.14;97.85;100985.64;4960352;58;1141155;-83
2022/01/06 20:29:44;;;;;;;68.40;16.15;;;;;;;-2.12;97.82;100984.70;4984712;58;1141072;-82
2022/01/06 20:34:49;;;;;;;42.50;18.23;;;;;;;-2.15;97.70;100991.70;4974512;58;1141183;-82
2022/01/06 20:39:55;;;;;;;66.17;20.20;;;;;;;-2.17;97.76;100999.50;4967840;58;1140537;-73
2022/01/06 20:45:03;;;;;;;92.47;24.90;;;;;;;-2.20;97.83;100999.55;4976225;58;1141007;-83
2022/01/06 20:55:37;;;;;;;221.07;51.60;;;;;;;-2.25;98.20;100998.77;4940889;58;1141128;-86
2022/01/06 21:00:45;;;;;;;68.53;15.37;;;;;;;-2.25;98.32;100996.61;4970599;58;1143388;-87
2022/01/06 21:05:51;;;;;;;148.70;37.63;;;;;;;-2.27;98.42;100995.78;4923329;58;1141200;-83
2022/01/06 21:10:57;;;;;;;80.93;21.17;;;;;;;-2.32;98.45;101001.06;4942056;59;1143342;-77
2022/01/06 21:16:02;;;;;;;97.53;22.47;;;;;;;-2.30;98.70;101004.92;4980563;58;1141265;-76
2022/01/06 21:21:09;;;;;;;77.33;20.03;;;;;;;-2.31;98.65;101004.07;4956737;58;1141388;-73
2022/01/06 21:26:15;;;;;;;59.63;15.60;;;;;;;-2.36;98.77;101011.05;4906754;58;1141202;-77
2022/01/06 21:31:21;;;;;;;75.40;20.97;;;;;;;-2.42;98.78;101009.84;4910810;59;1141150;-80
2022/01/06 21:36:26;;;;;;;316.53;94.80;;;;;;;-2.47;99.00;101018.59;4964287;59;1141085;-79
2022/01/06 21:41:32;;;;;;;588.10;251.97;;;;;;;-2.46;99.26;101019.87;4906934;59;1143258;-74
2022/01/06 21:46:39;;;;;;;222.57;60.83;;;;;;;-2.42;99.52;101018.05;4983296;58;1145261;-75
2022/01/06 21:51:45;;;;;;;70.53;24.77;;;;;;;-2.39;99.56;101021.45;4990177;59;1143213;-73
2022/01/06 21:56:50;;;;;;;43.13;15.73;;;;;;;-2.40;99.49;101023.63;4990095;59;1141252;-69
2022/01/06 22:01:57;;;;;;;159.43;38.40;;;;;;;-2.44;99.42;101012.90;4989960;59;1141088;-78
2022/01/06 22:07:04;;;;;;;329.13;68.23;;;;;;;-2.46;99.55;101022.45;4958554;59;1141061;-71
2022/01/06 22:12:10;;;;;;;198.87;46.60;;;;;;;-2.49;99.66;101025.95;4978935;59;1141331;-71
2022/01/06 22:17:16;;;;;;;194.73;44.43;;;;;;;-2.50;100.00;101011.28;4979455;59;1141082;-76
2022/01/06 22:22:26;;;;;;;278.23;85.07;;;;;;;-2.35;100.00;101015.80;4932348;59;1143192;-73
2022/01/06 22:27:34;;;;;;;315.35;107.22;;;;;;;-2.22;100.00;101009.52;4911081;59;1143252;-76
2022/01/06 22:32:40;;;;;;;143.05;53.63;;;;;;;-2.12;100.00;101013.64;4932103;59;1145096;-72
2022/01/06 22:37:49;;;;;;;322.87;125.70;;;;;;;-2.08;100.00;101011.42;4921101;59;1143168;-74
2022/01/06 22:42:56;;;;;;;76.83;29.37;;;;;;;-1.98;100.00;101022.02;4800179;60;1145129;-76
2022/01/06 22:48:10;;;;;;;52.03;18.20;;;;;;;-2.13;99.32;101025.75;4948263;59;1141163;-73
2022/01/06 22:53:10;;;;;;;33.48;12.78;;;;;;;-2.32;98.74;101035.17;4801119;60;1138994;-75
2022/01/06 22:58:19;;;;;;;32.37;10.40;;;;;;;-2.45;98.97;101037.55;4968742;59;1139080;-75
2022/01/06 23:03:23;;;;;;;23.47;7.43;;;;;;;-2.59;98.99;101041.63;4932092;59;1139125;-77
2022/01/06 23:08:29;;;;;;;27.97;8.57;;;;;;;-2.73;99.31;101047.02;4951677;59;1136892;-70
2022/01/06 23:13:35;;;;;;;22.70;7.83;;;;;;;-2.82;99.66;101038.11;4950762;58;1136911;-75
2022/01/06 23:18:41;;;;;;;19.80;6.60;;;;;;;-2.91;100.00;101037.81;4965458;59;1137053;-74
2022/01/06 23:23:49;;;;;;;35.90;9.90;;;;;;;-2.97;100.00;101036.59;5008824;58;1136840;-77
2022/01/06 23:28:55;;;;;;;48.87;13.07;;;;;;;-2.99;100.00;101036.19;5028363;59;21202;-73
2022/01/06 23:34:02;;;;;;;28.40;10.13;;;;;;;-2.97;100.00;101022.80;4997917;58;1138972;-73
2022/01/06 23:39:10;;;;;;;33.27;10.27;;;;;;;-2.92;100.00;101014.55;5009470;58;1143201;-76